Aeroporto :
LOGIN :

Iscrizione | Disclaimer

   EN    FR    IT 

 










Sommario :    VFR   VFR Marginale   IFR   IFR Intensivo   IFR Molto Intensivo
Visibilità : 
Base nubi : 
>= 8 km
>= 3000ft
5 / 8 km
1000 / 3000 ft
1500m / 5 km
500 / 1000 ft
800 / 1500m
200 / 500 ft
< 800m
< 200 ft
Simboli :   Temporali  Nebbia  Neve Forte  Precipitazioni Forti  Vento > 20 kt
SIGMETs :   Varie  Temporali  Ghiacco  Turbolenza  Onda orograficha  Ceneri Vulcaniche






- Altitudine del aeroporto : 755 ft
- Codice IATA : DRS


EDDC - Dresden Klotzsche

ULTIMO METAR :
  • 232020Z AUTO 16005KT CAVOK 06/00 Q1000 NOSIG

METARs OBSOLETI :
  • 231950Z AUTO 16004KT CAVOK 06/00 Q1000 NOSIG
  • 231920Z AUTO 20004KT CAVOK 06/M01 Q1000 NOSIG
  • 231850Z AUTO VRB02KT CAVOK 06/M01 Q0999 NOSIG
  • 231820Z AUTO 24002KT CAVOK 06/M01 Q0999 NOSIG
  • 231750Z AUTO 23003KT CAVOK 07/M01 Q0999 NOSIG
  • 231720Z AUTO 24004KT 9999 FEW042 07/M01 Q0999 NOSIG
  • 231650Z AUTO 24006KT 210V270 9999 FEW042 08/M01 Q1000
  • 231620Z AUTO 23005KT 200V270 CAVOK 08/M01 Q0999 NOSIG
  • 231550Z AUTO 22007KT 9999 FEW044 08/M00 Q0999 NOSIG

TAF TAF EDDC
Valido dal 23 a 18 ore il 24 a 18 ore UTC


231700Z 2318/2418 19007KT CAVOK



MetMap, La meteo Aeronautica in un colpo d'occhio ! - Copyright ORBIFLY Dicembre 2007 - Disclaimer

ORBIFLY MET'MAP TEAM :

Programmazione e sviluppo : Alexandra Zaïnal
Concezione : Baudouin d'Aumeries
Supporto tecnico e logistico : Manuel Goepfert
Aiuto : Marc-Olivier Méhu
Aiuto per la traduzione : Arnaldo La Scala




FONTI E CREDITI :

   NOAA